Time;durP1;ratioP1;P1;durP2;ratioP2;P2;SDS_P1;SDS_P2;PMS_P1;PMS_P2;Temp;Humidity;BMP_temperature;BMP_pressure;BME280_temperature;BME280_humidity;BME280_pressure;Samples;Min_cycle;Max_cycle;Signal;HPM_P1;HPM_P2
2022/06/30 00:01:34;;;;;;;7.20;6.50;;;;;;;18.59;100.00;96081.28;5031631;28;101794;-61
2022/06/30 00:04:02;;;;;;;6.50;5.90;;;;;;;18.50;100.00;96082.34;5031686;28;102336;-62
2022/06/30 00:06:29;;;;;;;7.40;5.37;;;;;;;18.33;100.00;96080.34;5030946;28;102811;-61
2022/06/30 00:08:56;;;;;;;8.93;8.13;;;;;;;18.47;100.00;96078.34;5031568;28;102261;-62
2022/06/30 00:11:24;;;;;;;7.30;6.67;;;;;;;18.46;100.00;96070.59;5031669;27;102465;-62
2022/06/30 00:13:51;;;;;;;6.13;5.60;;;;;;;18.40;100.00;96069.94;5029441;28;106021;-62
2022/06/30 00:16:19;;;;;;;11.67;10.47;;;;;;;18.38;100.00;96068.66;5035315;28;101893;-62
2022/06/30 00:18:47;;;;;;;7.73;7.03;;;;;;;18.29;100.00;96070.44;5028506;28;104410;-62
2022/06/30 00:21:14;;;;;;;6.40;5.80;;;;;;;18.23;100.00;96066.28;5031136;28;101758;-62
2022/06/30 00:23:41;;;;;;;7.27;6.40;;;;;;;18.30;100.00;96066.63;5031086;27;102461;-62
2022/06/30 00:26:08;;;;;;;10.17;9.07;;;;;;;18.37;100.00;96065.16;5030751;27;102900;-62
2022/06/30 00:28:35;;;;;;;7.30;6.60;;;;;;;18.26;100.00;96065.69;5031120;28;101825;-62
2022/06/30 00:31:03;;;;;;;5.83;5.07;;;;;;;18.17;100.00;96062.13;5031188;28;103164;-61
2022/06/30 00:33:30;;;;;;;8.67;7.77;;;;;;;18.11;100.00;96066.84;5030468;28;102996;-62
2022/06/30 00:35:59;;;;;;;11.47;10.27;;;;;;;18.08;100.00;96058.56;5029751;28;102280;-62
2022/06/30 00:38:26;;;;;;;5.63;5.00;;;;;;;17.92;100.00;96058.13;5032323;27;103028;-62
2022/06/30 00:40:53;;;;;;;4.57;4.17;;;;;;;17.85;100.00;96049.69;5029589;28;101877;-61
2022/06/30 00:43:21;;;;;;;7.63;3.90;;;;;;;17.76;100.00;96058.78;5031043;27;102301;-62
2022/06/30 00:45:49;;;;;;;6.50;5.90;;;;;;;17.78;100.00;96049.31;5028847;28;105750;-62
2022/06/30 00:48:19;;;;;;;5.27;4.77;;;;;;;17.76;100.00;96050.72;5031154;28;101882;-62
2022/06/30 00:50:46;;;;;;;4.93;4.43;;;;;;;17.74;100.00;96044.84;5029372;28;103612;-61
2022/06/30 00:53:18;;;;;;;7.33;6.40;;;;;;;17.85;100.00;96048.88;5030029;27;103016;-62
2022/06/30 00:55:48;;;;;;;7.73;6.47;;;;;;;17.80;100.00;96047.13;5031047;28;101714;-62
2022/06/30 00:58:18;;;;;;;10.03;8.73;;;;;;;17.98;100.00;96056.13;5028711;28;105813;-62
2022/06/30 01:00:49;;;;;;;6.67;5.33;;;;;;;17.83;100.00;96045.72;5032359;28;105458;-61
2022/06/30 01:03:17;;;;;;;5.77;5.27;;;;;;;17.90;100.00;96046.09;5029307;28;103624;-62
2022/06/30 01:05:46;;;;;;;5.33;4.73;;;;;;;17.86;100.00;96039.72;5030361;27;102712;-62
2022/06/30 01:08:16;;;;;;;5.27;4.87;;;;;;;17.91;100.00;96044.97;5030607;28;101706;-62
2022/06/30 01:13:29;;;;;;;5.00;4.60;;;;;;;17.60;100.00;96034.13;5028581;28;105701;-62
2022/06/30 01:15:56;;;;;;;5.03;4.53;;;;;;;17.64;100.00;96042.38;5030448;27;102188;-62
2022/06/30 01:18:23;;;;;;;4.93;4.53;;;;;;;17.57;100.00;96044.69;5029220;28;105288;-62
2022/06/30 01:20:50;;;;;;;5.40;4.90;;;;;;;17.40;100.00;96036.47;5028426;28;107109;-62
2022/06/30 01:23:19;;;;;;;6.07;5.50;;;;;;;17.56;100.00;96043.09;5032192;28;102054;-62
2022/06/30 01:25:46;;;;;;;6.97;5.37;;;;;;;17.60;100.00;96046.78;5029611;28;102627;-61
2022/06/30 01:28:14;;;;;;;7.37;4.30;;;;;;;17.47;100.00;96042.22;5028925;28;101915;-62
2022/06/30 01:30:42;;;;;;;5.60;3.97;;;;;;;17.38;100.00;96041.31;5029998;28;103993;-62
2022/06/30 01:33:09;;;;;;;7.10;5.50;;;;;;;17.42;100.00;96053.06;5029634;27;102669;-62
2022/06/30 01:35:37;;;;;;;5.73;5.20;;;;;;;17.33;100.00;96046.78;5030412;28;101825;-61
2022/06/30 01:38:03;;;;;;;4.80;4.40;;;;;;;17.26;100.00;96043.69;5030264;27;102464;-61
2022/06/30 01:40:36;;;;;;;4.90;4.37;;;;;;;17.33;100.00;96044.09;5028089;28;105728;-62
2022/06/30 01:43:05;;;;;;;5.10;4.70;;;;;;;17.40;100.00;96044.53;5030300;28;101676;-61
2022/06/30 01:45:33;;;;;;;5.57;4.60;;;;;;;17.48;100.00;96041.09;5032749;27;102719;-62
2022/06/30 01:48:01;;;;;;;6.73;6.10;;;;;;;17.56;100.00;96043.09;5030345;28;101822;-62
2022/06/30 01:50:30;;;;;;;4.70;4.23;;;;;;;17.42;100.00;96035.06;5030091;28;102931;-61
2022/06/30 01:52:58;;;;;;;4.50;3.80;;;;;;;17.45;100.00;96039.03;5033356;27;102514;-62
2022/06/30 01:55:26;;;;;;;6.20;4.70;;;;;;;17.26;100.00;96039.13;5032022;28;102000;-61
2022/06/30 01:57:55;;;;;;;4.70;4.10;;;;;;;17.28;100.00;96044.22;5031962;28;103784;-62
2022/06/30 02:00:25;;;;;;;7.83;6.20;;;;;;;17.28;100.00;96047.69;5032711;28;103130;-62
2022/06/30 02:02:53;;;;;;;6.00;4.73;;;;;;;17.09;100.00;96047.00;5033266;28;101848;-61
2022/06/30 02:05:21;;;;;;;9.20;8.20;;;;;;;17.32;100.00;96050.56;5034728;28;105066;-62
2022/06/30 02:07:48;;;;;;;10.47;9.47;;;;;;;17.52;100.00;96050.16;5032135;28;101985;-62
2022/06/30 02:10:19;;;;;;;10.80;9.70;;;;;;;17.71;100.00;96058.91;5065872;27;105160;-61
2022/06/30 02:12:47;;;;;;;8.10;7.30;;;;;;;17.53;100.00;96057.94;5032971;28;102869;-61
2022/06/30 02:15:18;;;;;;;7.87;7.07;;;;;;;17.54;100.00;96042.63;5033298;27;101968;-62
2022/06/30 02:17:47;;;;;;;11.13;8.27;;;;;;;17.65;100.00;96044.75;5033534;27;103013;-62
2022/06/30 02:20:18;;;;;;;7.17;5.83;;;;;;;17.54;100.00;96048.00;5031264;28;103926;-62
2022/06/30 02:22:45;;;;;;;5.47;4.97;;;;;;;17.26;100.00;96041.81;5033332;27;102122;-61
2022/06/30 02:25:12;;;;;;;7.33;5.83;;;;;;;17.23;100.00;96052.38;5033015;28;102426;-61
2022/06/30 02:27:40;;;;;;;7.50;6.57;;;;;;;17.32;100.00;96050.56;5034479;28;105623;-61
2022/06/30 02:30:08;;;;;;;7.77;7.03;;;;;;;17.35;100.00;96047.28;5033129;28;102888;-62
2022/06/30 02:32:36;;;;;;;7.50;6.70;;;;;;;17.41;100.00;96048.78;5030838;28;104125;-62
2022/06/30 02:35:04;;;;;;;6.80;5.90;;;;;;;17.25;100.00;96045.59;5032867;28;102334;-62
2022/06/30 02:37:31;;;;;;;5.60;4.97;;;;;;;17.37;100.00;96051.25;5033327;27;102848;-61
2022/06/30 02:39:58;;;;;;;9.10;7.27;;;;;;;17.40;100.00;96045.31;5032306;28;103231;-61
2022/06/30 02:42:25;;;;;;;6.00;5.47;;;;;;;17.44;100.00;96048.97;5032942;28;101859;-61
2022/06/30 02:44:52;;;;;;;6.97;5.93;;;;;;;17.47;100.00;96059.16;5032922;28;102392;-61
2022/06/30 02:47:20;;;;;;;5.90;5.33;;;;;;;17.44;100.00;96053.59;5032026;28;102532;-61
2022/06/30 02:49:48;;;;;;;7.60;5.27;;;;;;;17.33;100.00;96054.84;5034991;28;101982;-61
2022/06/30 02:52:15;;;;;;;6.00;5.40;;;;;;;17.38;100.00;96060.13;5031889;27;106173;-62
2022/06/30 02:54:42;;;;;;;7.83;6.97;;;;;;;17.47;100.00;96061.84;5031501;28;102263;-62
2022/06/30 02:57:10;;;;;;;6.97;6.27;;;;;;;17.46;100.00;96062.94;5030786;28;105568;-61
2022/06/30 02:59:37;;;;;;;5.73;5.13;;;;;;;17.21;100.00;96068.00;5030530;28;105515;-61
2022/06/30 03:02:05;;;;;;;6.23;5.70;;;;;;;17.42;100.00;96077.25;5030989;27;102013;-61
2022/06/30 03:04:32;;;;;;;5.77;5.37;;;;;;;17.20;100.00;96072.59;5031166;28;105708;-61
2022/06/30 03:07:01;;;;;;;7.87;6.97;;;;;;;17.37;100.00;96083.50;5030509;28;105372;-61
2022/06/30 03:09:28;;;;;;;9.23;8.00;;;;;;;17.55;100.00;96092.59;5030839;28;102064;-61
2022/06/30 03:11:55;;;;;;;7.50;6.80;;;;;;;17.54;100.00;96085.63;5033963;28;105209;-61
2022/06/30 03:14:23;;;;;;;5.80;5.37;;;;;;;17.33;100.00;96087.13;5032463;28;102251;-61
2022/06/30 03:16:50;;;;;;;5.40;4.90;;;;;;;17.20;100.00;96080.63;5032401;28;102553;-62
2022/06/30 03:19:17;;;;;;;5.20;4.70;;;;;;;17.11;100.00;96090.47;5031703;28;102780;-61
2022/06/30 03:21:44;;;;;;;9.00;6.87;;;;;;;17.39;100.00;96094.00;5030711;28;101895;-61
2022/06/30 03:24:13;;;;;;;6.40;5.80;;;;;;;17.11;100.00;96085.13;5030561;28;105303;-61
2022/06/30 03:26:40;;;;;;;7.40;5.80;;;;;;;17.26;100.00;96086.69;5031907;28;103150;-61
2022/06/30 03:29:07;;;;;;;7.50;5.27;;;;;;;17.26;100.00;96086.69;5032310;28;102128;-61
2022/06/30 03:31:35;;;;;;;5.20;4.73;;;;;;;17.16;100.00;96084.25;5032219;28;102305;-61
2022/06/30 03:34:02;;;;;;;6.03;5.53;;;;;;;17.23;100.00;96090.00;5034912;28;102560;-61
2022/06/30 03:36:29;;;;;;;6.10;5.60;;;;;;;17.21;100.00;96092.16;5031999;28;102863;-61
2022/06/30 03:38:56;;;;;;;5.63;5.10;;;;;;;17.33;100.00;96079.81;5031456;27;102586;-61
2022/06/30 03:41:25;;;;;;;6.13;5.63;;;;;;;17.39;100.00;96084.03;5031875;27;101908;-61
2022/06/30 03:43:53;;;;;;;5.43;4.87;;;;;;;17.27;100.00;96086.41;5032074;28;102318;-61
2022/06/30 03:46:20;;;;;;;5.57;4.57;;;;;;;17.18;100.00;96077.47;5031416;27;102938;-61
2022/06/30 03:48:53;;;;;;;5.33;4.83;;;;;;;17.30;100.00;96080.44;5031864;28;101730;-64
2022/06/30 03:51:20;;;;;;;5.43;4.90;;;;;;;17.08;100.00;96082.22;5032251;28;102455;-61
2022/06/30 03:53:47;;;;;;;5.50;4.40;;;;;;;17.10;100.00;96080.03;5030157;28;105520;-61
2022/06/30 03:56:16;;;;;;;6.47;5.40;;;;;;;17.22;100.00;96080.34;5032652;28;101809;-61
2022/06/30 03:58:44;;;;;;;6.40;5.10;;;;;;;17.29;100.00;96086.91;5029994;28;105435;-61
2022/06/30 04:01:11;;;;;;;7.10;5.47;;;;;;;17.35;100.00;96082.22;5032091;28;101855;-61
2022/06/30 04:03:38;;;;;;;6.23;5.07;;;;;;;17.32;100.00;96083.63;5030477;28;104085;-61
2022/06/30 04:06:15;;;;;;;5.43;4.73;;;;;;;17.22;100.00;96083.03;5031436;27;102595;-61
2022/06/30 04:08:42;;;;;;;6.10;4.93;;;;;;;17.30;100.00;96096.56;5031799;28;101789;-61
2022/06/30 04:11:09;;;;;;;6.60;5.37;;;;;;;17.43;100.00;96089.63;5031970;28;102905;-61
2022/06/30 04:13:37;;;;;;;6.93;5.13;;;;;;;17.27;100.00;96088.31;5028688;27;103754;-61
2022/06/30 04:16:22;;;;;;;5.23;4.83;;;;;;;17.35;100.00;96087.59;5035316;28;101844;-61
2022/06/30 04:18:50;;;;;;;5.30;4.80;;;;;;;17.40;100.00;96092.91;5031121;28;103207;-61
2022/06/30 04:21:17;;;;;;;5.87;5.27;;;;;;;17.52;100.00;96099.38;5031388;28;101722;-61
2022/06/30 04:23:44;;;;;;;5.23;4.60;;;;;;;17.70;100.00;96090.38;5031087;28;102332;-61
2022/06/30 04:26:11;;;;;;;5.57;5.07;;;;;;;17.75;100.00;96092.16;5028849;28;105441;-61
2022/06/30 04:28:39;;;;;;;5.20;4.80;;;;;;;17.83;100.00;96091.44;5031504;28;101746;-61
2022/06/30 04:33:52;;;;;;;5.00;4.57;;;;;;;17.83;100.00;96099.50;5030876;27;102516;-61
2022/06/30 04:36:19;;;;;;;5.50;5.00;;;;;;;17.98;100.00;96107.25;5029505;28;102474;-61
2022/06/30 04:38:46;;;;;;;6.87;5.53;;;;;;;18.21;100.00;96109.66;5034535;28;102601;-61
2022/06/30 04:41:25;;;;;;;6.53;5.70;;;;;;;18.37;100.00;96116.28;5029655;28;101950;-61
2022/06/30 04:43:53;;;;;;;5.70;5.20;;;;;;;18.40;100.00;96112.19;5031208;28;102906;-61
2022/06/30 04:46:20;;;;;;;7.40;5.53;;;;;;;18.47;100.00;96101.81;5030058;28;102600;-61
2022/06/30 04:48:47;;;;;;;5.33;4.83;;;;;;;18.54;100.00;96094.09;5029672;28;101868;-61
2022/06/30 04:51:17;;;;;;;5.90;5.23;;;;;;;18.70;100.00;96103.38;5031097;28;102698;-61
2022/06/30 04:53:45;;;;;;;6.20;5.63;;;;;;;18.75;100.00;96095.19;5030375;28;102950;-61
2022/06/30 04:56:12;;;;;;;6.37;5.57;;;;;;;18.95;100.00;96102.72;5030425;28;101908;-61
2022/06/30 04:58:39;;;;;;;6.07;5.57;;;;;;;19.00;100.00;96099.88;5030590;27;104041;-61
2022/06/30 05:01:09;;;;;;;6.90;6.20;;;;;;;19.03;100.00;96091.97;5032248;28;103885;-61
2022/06/30 05:03:36;;;;;;;6.37;5.87;;;;;;;19.07;100.00;96094.88;5029303;28;105160;-61
2022/06/30 05:06:04;;;;;;;6.63;6.00;;;;;;;19.02;100.00;96089.63;5028594;28;105624;-61
2022/06/30 05:08:34;;;;;;;6.87;6.17;;;;;;;18.99;100.00;96080.25;5029153;28;102076;-61
2022/06/30 05:11:01;;;;;;;6.40;5.80;;;;;;;19.09;100.00;96084.56;5029198;28;105167;-61
2022/06/30 05:13:28;;;;;;;7.03;6.43;;;;;;;19.12;100.00;96079.34;5028512;28;105668;-61
2022/06/30 05:15:56;;;;;;;6.40;5.90;;;;;;;19.26;100.00;96084.66;5029203;28;102110;-61
2022/06/30 05:18:24;;;;;;;7.17;6.53;;;;;;;19.40;100.00;96077.25;5029028;28;106039;-61
2022/06/30 05:20:51;;;;;;;7.03;6.33;;;;;;;19.52;100.00;96077.44;5029658;27;102600;-61
2022/06/30 05:23:18;;;;;;;7.07;6.37;;;;;;;19.51;100.00;96079.34;5033709;28;102093;-61
2022/06/30 05:28:31;;;;;;;6.90;6.30;;;;;;;19.70;100.00;96073.66;5030464;27;101696;-61
2022/06/30 05:30:58;;;;;;;7.60;6.17;;;;;;;19.62;100.00;96069.06;5028741;28;104186;-61
2022/06/30 05:33:25;;;;;;;7.97;6.13;;;;;;;19.55;100.00;96066.81;5029456;28;102752;-61
2022/06/30 05:35:56;;;;;;;7.70;6.20;;;;;;;19.88;100.00;96070.66;5030385;28;101909;-61
2022/06/30 05:38:23;;;;;;;7.13;6.43;;;;;;;20.10;100.00;96075.94;5028701;28;103571;-61
2022/06/30 05:40:52;;;;;;;7.00;6.40;;;;;;;20.33;100.00;96076.59;5029644;27;102740;-61
2022/06/30 05:43:19;;;;;;;6.60;6.00;;;;;;;20.44;100.00;96077.84;5030014;27;101902;-62
2022/06/30 05:45:50;;;;;;;6.90;6.20;;;;;;;20.47;100.00;96083.41;5031648;28;105152;-61
2022/06/30 05:48:18;;;;;;;8.20;6.03;;;;;;;20.61;100.00;96080.53;5030271;28;102068;-61
2022/06/30 05:50:45;;;;;;;6.60;6.00;;;;;;;20.64;100.00;96075.25;5029849;27;102817;-61
2022/06/30 05:53:12;;;;;;;9.60;6.60;;;;;;;20.64;100.00;96077.97;5029421;28;102695;-61
2022/06/30 05:55:39;;;;;;;6.70;6.00;;;;;;;20.79;100.00;96072.06;5029944;28;101850;-61
2022/06/30 05:58:08;;;;;;;6.20;5.70;;;;;;;21.03;100.00;96063.44;5029825;27;102271;-61
2022/06/30 06:00:35;;;;;;;6.63;6.00;;;;;;;21.02;100.00;96065.34;5029237;28;103146;-61
2022/06/30 06:03:03;;;;;;;7.07;5.83;;;;;;;21.03;100.00;96075.03;5028576;28;102025;-61
2022/06/30 06:05:30;;;;;;;7.33;6.73;;;;;;;20.72;100.00;96073.66;5028615;28;104122;-61
2022/06/30 06:08:05;;;;;;;7.17;6.53;;;;;;;20.47;100.00;96066.38;5031056;28;101895;-61
2022/06/30 06:10:32;;;;;;;7.00;6.30;;;;;;;20.45;100.00;96066.72;5029798;27;102353;-61
2022/06/30 06:12:59;;;;;;;6.33;5.60;;;;;;;20.83;100.00;96056.00;5029333;28;102665;-61
2022/06/30 06:15:28;;;;;;;7.40;5.73;;;;;;;21.15;100.00;96055.44;5029905;28;102001;-61
2022/06/30 06:17:55;;;;;;;9.33;6.10;;;;;;;21.08;100.00;96047.81;5028152;28;103495;-61
2022/06/30 06:20:22;;;;;;;7.20;6.50;;;;;;;20.79;100.00;96063.94;5028875;28;102915;-61
2022/06/30 06:22:50;;;;;;;7.27;6.37;;;;;;;20.84;100.00;96055.69;5029745;28;101708;-61
2022/06/30 06:25:17;;;;;;;6.23;5.63;;;;;;;21.19;100.00;96050.97;5029552;27;102507;-61
2022/06/30 06:29:05;;;;;;;6.57;5.97;;;;;;;21.36;100.00;96056.28;5032472;27;102613;-61
2022/06/30 06:30:35;;;;;;;7.03;5.50;;;;;;;21.73;100.00;96056.25;5029467;28;102347;-61
2022/06/30 06:33:02;;;;;;;5.90;5.20;;;;;;;21.97;100.00;96063.72;5028796;28;102587;-62
2022/06/30 06:35:29;;;;;;;5.77;4.90;;;;;;;22.21;100.00;96055.72;5029382;27;101855;-61
2022/06/30 06:37:56;;;;;;;5.50;5.00;;;;;;;22.42;100.00;96056.50;5031963;27;102364;-61
2022/06/30 06:40:23;;;;;;;6.33;5.13;;;;;;;22.52;100.00;96054.22;5031194;28;105751;-61
2022/06/30 06:42:51;;;;;;;6.23;5.00;;;;;;;22.70;100.00;96054.81;5032849;27;101956;-61
2022/06/30 06:45:18;;;;;;;5.43;4.93;;;;;;;22.48;100.00;96055.19;5032937;28;102556;-61
2022/06/30 06:47:47;;;;;;;5.70;5.20;;;;;;;22.01;100.00;96057.31;5032542;27;102667;-61
2022/06/30 06:50:14;;;;;;;7.40;4.73;;;;;;;21.84;100.00;96056.63;5034669;28;101874;-61
2022/06/30 06:52:41;;;;;;;4.90;4.50;;;;;;;21.87;100.00;96056.78;5032102;28;103046;-61
2022/06/30 06:55:09;;;;;;;5.20;4.73;;;;;;;21.91;100.00;96057.69;5032788;28;101836;-61
2022/06/30 06:57:38;;;;;;;5.87;5.27;;;;;;;21.86;100.00;96059.81;5031091;28;104834;-61
2022/06/30 07:00:06;;;;;;;5.47;4.97;;;;;;;21.90;100.00;96060.75;5032086;28;103090;-61
2022/06/30 07:02:34;;;;;;;8.63;4.80;;;;;;;22.01;100.00;96057.31;5032404;28;101856;-61
2022/06/30 07:05:02;;;;;;;5.67;5.10;;;;;;;22.08;100.00;96056.78;5031015;28;105600;-61
2022/06/30 07:07:30;;;;;;;9.27;5.23;;;;;;;22.51;100.00;96054.53;5030574;28;105084;-61
2022/06/30 07:09:57;;;;;;;5.00;4.60;;;;;;;22.77;100.00;96049.66;5031331;28;101964;-61
2022/06/30 07:12:24;;;;;;;6.83;4.97;;;;;;;22.96;100.00;96041.75;5034104;28;104831;-61
2022/06/30 07:14:51;;;;;;;5.00;4.53;;;;;;;23.01;100.00;96036.13;5030848;28;102038;-61
2022/06/30 07:17:19;;;;;;;7.67;5.33;;;;;;;23.01;100.00;96034.22;5031034;28;104815;-61
2022/06/30 07:19:47;;;;;;;5.27;4.87;;;;;;;23.25;100.00;96026.13;5030367;28;105715;-61
2022/06/30 07:22:17;;;;;;;4.97;4.50;;;;;;;23.36;100.00;96029.16;5030813;28;102276;-61
2022/06/30 07:24:44;;;;;;;4.43;4.07;;;;;;;23.65;100.00;96020.78;5030497;28;105315;-61
2022/06/30 07:27:12;;;;;;;5.03;4.63;;;;;;;23.74;100.00;96026.84;5030187;28;105280;-61
2022/06/30 07:29:39;;;;;;;4.80;4.43;;;;;;;23.69;100.00;96010.78;5030949;28;102001;-61
2022/06/30 07:32:07;;;;;;;7.30;4.93;;;;;;;23.65;100.00;96013.41;5064815;27;105177;-61
2022/06/30 07:34:34;;;;;;;4.40;4.00;;;;;;;23.95;100.00;96014.75;5033469;28;105985;-61
2022/06/30 07:37:01;;;;;;;6.40;4.03;;;;;;;23.57;100.00;96013.53;5030376;28;105295;-61
2022/06/30 07:39:30;;;;;;;4.70;4.27;;;;;;;23.93;100.00;96018.94;5030094;28;103939;-61
2022/06/30 07:41:57;;;;;;;6.07;4.40;;;;;;;23.48;100.00;96008.22;5030570;28;101943;-61
2022/06/30 07:44:25;;;;;;;6.37;4.00;;;;;;;23.97;100.00;96009.75;5031992;27;102860;-61
2022/06/30 07:46:53;;;;;;;4.10;3.70;;;;;;;24.37;100.00;96009.72;5031544;27;102578;-61
2022/06/30 07:49:20;;;;;;;4.60;3.40;;;;;;;24.21;100.00;96017.03;5029188;27;101937;-61
2022/06/30 07:51:48;;;;;;;4.10;3.77;;;;;;;24.48;100.00;96013.53;5031985;28;102337;-61
2022/06/30 07:54:15;;;;;;;5.33;3.60;;;;;;;24.75;100.00;96010.78;5031348;27;102551;-61
2022/06/30 07:56:44;;;;;;;3.50;3.20;;;;;;;25.05;100.00;96009.25;5034898;28;101883;-61
2022/06/30 07:59:11;;;;;;;5.87;3.50;;;;;;;25.22;100.00;96013.53;5031413;28;103140;-61
2022/06/30 08:01:38;;;;;;;4.83;3.30;;;;;;;25.17;100.00;96009.13;5031661;28;101923;-61
2022/06/30 08:04:05;;;;;;;3.80;3.20;;;;;;;25.35;100.00;96012.34;5030259;28;104260;-61
2022/06/30 08:06:32;;;;;;;3.77;2.97;;;;;;;25.23;100.00;96007.72;5029472;28;105192;-61
2022/06/30 08:08:59;;;;;;;4.73;3.23;;;;;;;25.53;100.00;96005.34;5030224;28;102004;-61
2022/06/30 08:11:28;;;;;;;3.47;3.17;;;;;;;25.71;100.00;95995.66;5030183;28;105108;-61
2022/06/30 08:13:57;;;;;;;4.37;3.30;;;;;;;25.86;100.00;95989.38;5029438;28;105888;-61
2022/06/30 08:16:24;;;;;;;5.03;3.40;;;;;;;26.01;100.00;95994.00;5034715;28;101877;-61
2022/06/30 08:18:51;;;;;;;3.50;3.03;;;;;;;25.46;100.00;95991.59;5029377;28;103847;-61
2022/06/30 08:21:18;;;;;;;5.23;3.27;;;;;;;25.81;100.00;96000.53;5031273;28;103434;-61
2022/06/30 08:23:45;;;;;;;5.30;3.07;;;;;;;26.27;100.00;95986.75;5029775;28;105673;-61
2022/06/30 08:26:12;;;;;;;3.97;3.17;;;;;;;26.45;100.00;95987.09;5028889;28;105420;-61
2022/06/30 08:28:40;;;;;;;3.40;2.93;;;;;;;26.52;100.00;95976.31;5029587;27;101897;-61
2022/06/30 08:31:08;;;;;;;4.50;3.17;;;;;;;26.72;100.00;95969.72;5029776;28;103108;-61
2022/06/30 08:33:36;;;;;;;3.43;3.03;;;;;;;26.81;100.00;95973.00;5029789;28;102622;-61
2022/06/30 08:36:02;;;;;;;3.57;2.90;;;;;;;26.81;100.00;95967.53;5029381;28;101939;-61
2022/06/30 08:38:30;;;;;;;3.10;2.80;;;;;;;26.80;100.00;95979.63;5033574;28;102903;-61
2022/06/30 08:43:44;;;;;;;3.27;2.77;;;;;;;26.83;100.00;95967.97;5031085;27;102804;-61
2022/06/30 08:46:14;;;;;;;3.63;2.70;;;;;;;27.15;100.00;95961.09;5028205;28;102860;-62
2022/06/30 08:48:41;;;;;;;3.00;2.70;;;;;;;27.25;100.00;95955.06;5028748;28;102095;-61
2022/06/30 08:51:09;;;;;;;3.17;2.50;;;;;;;27.37;100.00;95963.84;5028976;28;102347;-61
2022/06/30 08:53:41;;;;;;;2.30;2.10;;;;;;;27.60;100.00;95961.03;5026957;28;104013;-61
2022/06/30 08:56:08;;;;;;;3.33;2.40;;;;;;;27.62;100.00;95954.03;5026543;28;101857;-61
2022/06/30 08:58:36;;;;;;;5.17;2.60;;;;;;;27.73;100.00;95954.19;5028745;28;102344;-61
2022/06/30 09:01:05;;;;;;;2.80;2.30;;;;;;;27.68;100.00;95954.53;5031291;27;102789;-61
2022/06/30 09:03:35;;;;;;;4.13;2.50;;;;;;;27.78;100.00;95956.63;5028438;28;102623;-61
2022/06/30 09:06:02;;;;;;;2.30;2.20;;;;;;;27.98;100.00;95952.59;5024904;28;104256;-61
2022/06/30 09:08:30;;;;;;;4.17;2.40;;;;;;;27.91;100.00;95947.03;5029473;28;101916;-61
2022/06/30 09:10:57;;;;;;;5.17;2.40;;;;;;;28.12;100.00;95948.09;5028679;28;102469;-61
2022/06/30 09:13:25;;;;;;;5.00;2.43;;;;;;;28.23;100.00;95948.22;5026763;28;105628;-61
2022/06/30 09:15:53;;;;;;;4.13;2.33;;;;;;;28.38;100.00;95948.03;5028432;28;101866;-61
2022/06/30 09:18:25;;;;;;;2.30;1.90;;;;;;;28.52;100.00;95947.41;5025273;28;104383;-61
2022/06/30 09:20:54;;;;;;;2.60;2.20;;;;;;;28.19;100.00;95947.38;5028252;28;102659;-61
2022/06/30 09:23:23;;;;;;;3.27;2.00;;;;;;;28.57;100.00;95949.78;5029618;28;102108;-61
2022/06/30 09:25:52;;;;;;;3.27;2.47;;;;;;;28.46;100.00;95948.91;5027918;28;103347;-61
2022/06/30 09:28:42;;;;;;;5.60;2.43;;;;;;;28.74;100.00;95951.91;5024944;28;102111;-61
2022/06/30 09:31:09;;;;;;;2.17;1.97;;;;;;;28.64;100.00;95955.34;5026324;28;103985;-61
2022/06/30 09:33:37;;;;;;;3.10;2.00;;;;;;;28.81;100.00;95944.56;5027876;28;102907;-61
2022/06/30 09:36:22;;;;;;;2.20;1.97;;;;;;;29.04;100.00;95950.66;5028639;27;101744;-61
2022/06/30 09:39:06;;;;;;;2.97;2.27;;;;;;;28.91;100.00;95952.09;5027368;28;102350;-61
2022/06/30 09:41:35;;;;;;;4.07;2.10;;;;;;;29.03;100.00;95953.78;5026945;28;102610;-61
2022/06/30 09:44:06;;;;;;;3.07;2.30;;;;;;;29.20;100.00;95950.41;5026828;28;101959;-61
2022/06/30 09:46:36;;;;;;;3.80;2.07;;;;;;;29.49;100.00;95950.25;5030930;28;102373;-61
2022/06/30 09:49:03;;;;;;;2.37;2.17;;;;;;;29.50;100.00;95945.53;5026611;28;102060;-61
2022/06/30 09:51:33;;;;;;;2.75;2.17;;;;;;;29.40;100.00;95940.75;5028668;28;102121;-61
2022/06/30 09:54:07;;;;;;;4.47;2.70;;;;;;;29.51;100.00;95939.69;5025264;28;102701;-61
2022/06/30 09:56:35;;;;;;;3.25;2.38;;;;;;;29.57;100.00;95940.91;5027765;27;102354;-62
2022/06/30 09:59:05;;;;;;;3.58;2.17;;;;;;;29.74;100.00;95940.22;5028466;28;104695;-61
2022/06/30 10:01:51;;;;;;;3.10;2.10;;;;;;;29.90;100.00;95937.97;5027943;28;102891;-61
2022/06/30 10:04:18;;;;;;;3.42;2.20;;;;;;;30.11;100.00;95929.06;5028485;28;101881;-61
2022/06/30 10:06:47;;;;;;;2.92;2.00;;;;;;;30.37;100.00;95931.50;5028364;28;102805;-61
2022/06/30 10:09:17;;;;;;;2.50;2.10;;;;;;;30.55;100.00;95922.16;5031484;28;102734;-62
2022/06/30 10:11:45;;;;;;;2.53;2.20;;;;;;;30.40;100.00;95919.78;5027410;27;105031;-61
2022/06/30 10:14:13;;;;;;;2.40;2.20;;;;;;;30.25;100.00;95912.66;5030807;28;105856;-61
2022/06/30 10:16:42;;;;;;;3.78;2.92;;;;;;;30.33;100.00;95914.25;5031976;28;101926;-61
2022/06/30 10:19:10;;;;;;;4.13;2.20;;;;;;;30.49;97.21;95906.44;5033291;28;102378;-61
2022/06/30 10:21:39;;;;;;;2.72;2.10;;;;;;;30.35;100.00;95896.22;5031267;28;104120;-62
2022/06/30 10:24:09;;;;;;;3.40;2.35;;;;;;;30.20;100.00;95891.09;5032676;28;101871;-61
2022/06/30 10:29:22;;;;;;;2.40;2.20;;;;;;;30.83;100.00;95896.75;5036092;27;103044;-62
2022/06/30 10:31:52;;;;;;;2.75;1.90;;;;;;;31.32;97.67;95896.75;5032800;27;104369;-61
2022/06/30 10:34:24;;;;;;;2.67;2.47;;;;;;;31.57;95.97;95894.72;5032438;28;102965;-62
2022/06/30 10:37:01;;;;;;;5.13;2.20;;;;;;;31.40;96.93;95881.81;5031658;28;101820;-61
2022/06/30 10:39:39;;;;;;;3.65;2.13;;;;;;;31.03;93.57;95887.72;5031681;28;105298;-62
2022/06/30 10:42:07;;;;;;;3.53;2.30;;;;;;;31.09;96.21;95891.63;5032708;28;102644;-61
2022/06/30 10:44:34;;;;;;;3.22;1.85;;;;;;;30.86;100.00;95887.72;5032574;28;101780;-61
2022/06/30 10:47:09;;;;;;;4.22;2.00;;;;;;;30.83;100.00;95891.25;5033263;27;102287;-61
2022/06/30 10:50:01;;;;;;;2.97;2.10;;;;;;;30.84;95.96;95888.09;5030721;28;105934;-62
2022/06/30 10:52:32;;;;;;;3.08;2.08;;;;;;;31.23;99.20;95879.88;5036230;28;101720;-62
2022/06/30 10:55:06;;;;;;;2.50;1.90;;;;;;;31.45;96.76;95889.66;5032004;27;102600;-61
2022/06/30 10:58:08;;;;;;;2.85;2.00;;;;;;;31.77;87.72;95888.41;5032772;27;101779;-62
2022/06/30 11:01:00;;;;;;;3.38;1.98;;;;;;;32.07;96.65;95879.63;5032742;27;102338;-62
2022/06/30 11:04:03;;;;;;;4.22;1.90;;;;;;;31.88;87.73;95878.16;5032008;28;103214;-62
2022/06/30 11:07:09;;;;;;;4.22;2.10;;;;;;;31.56;86.18;95876.66;5031330;28;102034;-63
2022/06/30 11:10:17;;;;;;;2.63;2.00;;;;;;;31.98;84.62;95865.56;5032676;28;102648;-62
2022/06/30 11:12:58;;;;;;;2.67;1.80;;;;;;;32.09;88.94;95860.78;5031693;27;103077;-63
2022/06/30 11:15:54;;;;;;;2.72;2.17;;;;;;;32.22;80.22;95861.88;5032694;28;101711;-63
2022/06/30 11:18:21;;;;;;;4.95;2.10;;;;;;;32.04;86.28;95863.94;5035392;28;102918;-62
2022/06/30 11:20:50;;;;;;;2.38;1.90;;;;;;;32.15;73.42;95861.94;5032183;27;101893;-62
2022/06/30 11:23:18;;;;;;;1.75;1.65;;;;;;;32.14;73.60;95866.63;5031877;27;102331;-64
2022/06/30 11:28:34;;;;;;;2.60;1.85;;;;;;;32.25;78.15;95861.88;5032404;27;101695;-64
2022/06/30 11:31:01;;;;;;;2.72;1.80;;;;;;;32.57;71.58;95853.41;5032121;27;102287;-65
2022/06/30 11:33:28;;;;;;;2.90;1.77;;;;;;;32.64;76.78;95856.91;5030155;28;105751;-67
2022/06/30 11:36:16;;;;;;;4.30;2.28;;;;;;;32.94;74.19;95859.06;5031977;28;102313;-68
2022/06/30 11:38:43;;;;;;;2.28;1.83;;;;;;;32.65;70.93;95850.25;5025539;28;105952;-65
2022/06/30 11:43:56;;;;;;;3.80;2.25;;;;;;;32.70;73.74;95851.78;5030757;28;103873;-63
2022/06/30 11:46:23;;;;;;;2.97;1.98;;;;;;;32.81;74.61;95850.50;5031296;27;102477;-63